sensor_id;sensor_type;location;lat;lon;timestamp;temperature;humidity
7331;DHT22;3706;49.198;7.064;2022-08-21T00:00:29;13.40;99.90
7331;DHT22;3706;49.198;7.064;2022-08-21T00:03:00;13.30;99.90
7331;DHT22;3706;49.198;7.064;2022-08-21T00:05:28;13.30;99.90
7331;DHT22;3706;49.198;7.064;2022-08-21T00:07:57;13.40;99.90
7331;DHT22;3706;49.198;7.064;2022-08-21T00:10:24;13.40;99.90
7331;DHT22;3706;49.198;7.064;2022-08-21T00:12:52;13.30;99.90
7331;DHT22;3706;49.198;7.064;2022-08-21T00:15:21;13.20;99.90
7331;DHT22;3706;49.198;7.064;2022-08-21T00:17:49;13.40;99.90
7331;DHT22;3706;49.198;7.064;2022-08-21T00:20:16;13.50;99.90
7331;DHT22;3706;49.198;7.064;2022-08-21T00:22:44;13.60;99.90
7331;DHT22;3706;49.198;7.064;2022-08-21T00:25:13;13.60;99.90
7331;DHT22;3706;49.198;7.064;2022-08-21T00:27:41;13.60;99.90
7331;DHT22;3706;49.198;7.064;2022-08-21T00:30:10;13.70;99.90
7331;DHT22;3706;49.198;7.064;2022-08-21T00:32:39;13.60;99.90
7331;DHT22;3706;49.198;7.064;2022-08-21T00:35:09;13.50;99.90
7331;DHT22;3706;49.198;7.064;2022-08-21T00:37:37;13.30;99.90
7331;DHT22;3706;49.198;7.064;2022-08-21T00:40:08;13.00;99.90
7331;DHT22;3706;49.198;7.064;2022-08-21T00:42:37;12.90;99.90
7331;DHT22;3706;49.198;7.064;2022-08-21T00:45:06;12.70;99.90
7331;DHT22;3706;49.198;7.064;2022-08-21T00:47:33;12.70;99.90
7331;DHT22;3706;49.198;7.064;2022-08-21T00:50:00;12.80;99.90
7331;DHT22;3706;49.198;7.064;2022-08-21T00:52:30;12.80;99.90
7331;DHT22;3706;49.198;7.064;2022-08-21T00:54:59;12.80;99.90
7331;DHT22;3706;49.198;7.064;2022-08-21T00:57:29;12.70;99.90
7331;DHT22;3706;49.198;7.064;2022-08-21T01:00:00;12.60;99.90
7331;DHT22;3706;49.198;7.064;2022-08-21T01:02:27;12.60;99.90
7331;DHT22;3706;49.198;7.064;2022-08-21T01:04:54;12.50;99.90
7331;DHT22;3706;49.198;7.064;2022-08-21T01:07:21;12.40;99.90
7331;DHT22;3706;49.198;7.064;2022-08-21T01:09:49;12.30;99.90
7331;DHT22;3706;49.198;7.064;2022-08-21T01:12:18;12.50;99.90
7331;DHT22;3706;49.198;7.064;2022-08-21T01:14:45;12.50;99.90
7331;DHT22;3706;49.198;7.064;2022-08-21T01:17:14;12.50;99.90
7331;DHT22;3706;49.198;7.064;2022-08-21T01:19:42;12.50;99.90
7331;DHT22;3706;49.198;7.064;2022-08-21T01:22:10;12.50;99.90
7331;DHT22;3706;49.198;7.064;2022-08-21T01:24:37;12.40;99.90
7331;DHT22;3706;49.198;7.064;2022-08-21T01:27:04;12.40;99.90
7331;DHT22;3706;49.198;7.064;2022-08-21T01:29:36;12.30;99.90
7331;DHT22;3706;49.198;7.064;2022-08-21T01:32:07;12.30;99.90
7331;DHT22;3706;49.198;7.064;2022-08-21T01:34:37;12.20;99.90
7331;DHT22;3706;49.198;7.064;2022-08-21T01:37:05;12.30;99.90
7331;DHT22;3706;49.198;7.064;2022-08-21T01:39:34;12.20;99.90
7331;DHT22;3706;49.198;7.064;2022-08-21T01:42:01;12.30;99.90
7331;DHT22;3706;49.198;7.064;2022-08-21T01:44:29;12.20;99.90
7331;DHT22;3706;49.198;7.064;2022-08-21T01:46:58;12.10;99.90
7331;DHT22;3706;49.198;7.064;2022-08-21T01:49:26;12.00;99.90
7331;DHT22;3706;49.198;7.064;2022-08-21T01:51:53;11.90;99.90
7331;DHT22;3706;49.198;7.064;2022-08-21T01:54:20;11.90;99.90
7331;DHT22;3706;49.198;7.064;2022-08-21T01:56:51;11.80;99.90
7331;DHT22;3706;49.198;7.064;2022-08-21T01:59:19;11.80;99.90
7331;DHT22;3706;49.198;7.064;2022-08-21T02:01:46;11.90;99.90
7331;DHT22;3706;49.198;7.064;2022-08-21T02:04:14;12.00;99.90
7331;DHT22;3706;49.198;7.064;2022-08-21T02:06:41;11.90;99.90
7331;DHT22;3706;49.198;7.064;2022-08-21T02:09:11;11.80;99.90
7331;DHT22;3706;49.198;7.064;2022-08-21T02:11:38;11.60;99.90
7331;DHT22;3706;49.198;7.064;2022-08-21T02:14:07;11.50;99.90
7331;DHT22;3706;49.198;7.064;2022-08-21T02:16:34;11.40;99.90
7331;DHT22;3706;49.198;7.064;2022-08-21T02:19:02;11.30;99.90
7331;DHT22;3706;49.198;7.064;2022-08-21T02:21:29;11.30;99.90
7331;DHT22;3706;49.198;7.064;2022-08-21T02:23:56;11.40;99.90
7331;DHT22;3706;49.198;7.064;2022-08-21T02:26:23;11.50;99.90
7331;DHT22;3706;49.198;7.064;2022-08-21T02:28:50;11.40;99.90
7331;DHT22;3706;49.198;7.064;2022-08-21T02:31:18;11.50;99.90
7331;DHT22;3706;49.198;7.064;2022-08-21T02:33:45;11.50;99.90
7331;DHT22;3706;49.198;7.064;2022-08-21T02:36:12;11.50;99.90
7331;DHT22;3706;49.198;7.064;2022-08-21T02:38:41;11.50;99.90
7331;DHT22;3706;49.198;7.064;2022-08-21T02:41:11;11.50;99.90
7331;DHT22;3706;49.198;7.064;2022-08-21T02:43:38;11.50;99.90
7331;DHT22;3706;49.198;7.064;2022-08-21T02:46:07;11.40;99.90
7331;DHT22;3706;49.198;7.064;2022-08-21T02:48:36;11.30;99.90
7331;DHT22;3706;49.198;7.064;2022-08-21T02:51:05;11.30;99.90
7331;DHT22;3706;49.198;7.064;2022-08-21T02:53:33;11.40;99.90
7331;DHT22;3706;49.198;7.064;2022-08-21T02:56:03;11.70;99.90
7331;DHT22;3706;49.198;7.064;2022-08-21T02:58:34;11.70;99.90
7331;DHT22;3706;49.198;7.064;2022-08-21T03:01:02;11.60;99.90
7331;DHT22;3706;49.198;7.064;2022-08-21T03:03:30;11.50;99.90
7331;DHT22;3706;49.198;7.064;2022-08-21T03:05:58;11.40;99.90
7331;DHT22;3706;49.198;7.064;2022-08-21T03:08:25;11.30;99.90
7331;DHT22;3706;49.198;7.064;2022-08-21T03:10:53;11.10;99.90
7331;DHT22;3706;49.198;7.064;2022-08-21T03:13:20;11.00;99.90
7331;DHT22;3706;49.198;7.064;2022-08-21T03:15:48;10.90;99.90
7331;DHT22;3706;49.198;7.064;2022-08-21T03:18:15;10.80;99.90
7331;DHT22;3706;49.198;7.064;2022-08-21T03:20:44;10.70;99.90
7331;DHT22;3706;49.198;7.064;2022-08-21T03:23:13;10.80;99.90
7331;DHT22;3706;49.198;7.064;2022-08-21T03:25:41;10.90;99.90
7331;DHT22;3706;49.198;7.064;2022-08-21T03:28:12;11.00;99.90
7331;DHT22;3706;49.198;7.064;2022-08-21T03:30:40;11.00;99.90
7331;DHT22;3706;49.198;7.064;2022-08-21T03:33:07;11.00;99.90
7331;DHT22;3706;49.198;7.064;2022-08-21T03:35:34;10.90;99.90
7331;DHT22;3706;49.198;7.064;2022-08-21T03:38:01;10.80;99.90
7331;DHT22;3706;49.198;7.064;2022-08-21T03:40:29;10.70;99.90
7331;DHT22;3706;49.198;7.064;2022-08-21T03:42:57;10.70;99.90
7331;DHT22;3706;49.198;7.064;2022-08-21T03:45:25;10.60;99.90
7331;DHT22;3706;49.198;7.064;2022-08-21T03:47:54;10.60;99.90
7331;DHT22;3706;49.198;7.064;2022-08-21T03:50:23;10.70;99.90
7331;DHT22;3706;49.198;7.064;2022-08-21T03:52:50;10.60;99.90
7331;DHT22;3706;49.198;7.064;2022-08-21T03:55:17;10.50;99.90
7331;DHT22;3706;49.198;7.064;2022-08-21T03:57:45;10.50;99.90
7331;DHT22;3706;49.198;7.064;2022-08-21T04:00:14;10.70;99.90
7331;DHT22;3706;49.198;7.064;2022-08-21T04:02:41;11.00;99.90
7331;DHT22;3706;49.198;7.064;2022-08-21T04:05:10;11.20;99.90
7331;DHT22;3706;49.198;7.064;2022-08-21T04:07:37;11.20;99.90
7331;DHT22;3706;49.198;7.064;2022-08-21T04:10:05;11.20;99.90
7331;DHT22;3706;49.198;7.064;2022-08-21T04:12:32;10.90;99.90
7331;DHT22;3706;49.198;7.064;2022-08-21T04:15:01;10.70;99.90
7331;DHT22;3706;49.198;7.064;2022-08-21T04:17:28;10.60;99.90
7331;DHT22;3706;49.198;7.064;2022-08-21T04:19:55;10.50;99.90
7331;DHT22;3706;49.198;7.064;2022-08-21T04:22:22;10.50;99.90
7331;DHT22;3706;49.198;7.064;2022-08-21T04:24:49;10.60;99.90
7331;DHT22;3706;49.198;7.064;2022-08-21T04:27:16;10.70;99.90
7331;DHT22;3706;49.198;7.064;2022-08-21T04:29:43;10.80;99.90
7331;DHT22;3706;49.198;7.064;2022-08-21T04:32:11;10.80;99.90
7331;DHT22;3706;49.198;7.064;2022-08-21T04:34:38;10.90;99.90
7331;DHT22;3706;49.198;7.064;2022-08-21T04:37:05;10.80;99.90
7331;DHT22;3706;49.198;7.064;2022-08-21T04:39:32;10.60;99.90
7331;DHT22;3706;49.198;7.064;2022-08-21T04:41:59;10.50;99.90
7331;DHT22;3706;49.198;7.064;2022-08-21T04:44:26;10.50;99.90
7331;DHT22;3706;49.198;7.064;2022-08-21T04:46:52;10.60;99.90
7331;DHT22;3706;49.198;7.064;2022-08-21T04:49:21;10.70;99.90
7331;DHT22;3706;49.198;7.064;2022-08-21T04:52:00;10.70;99.90
7331;DHT22;3706;49.198;7.064;2022-08-21T04:54:28;10.80;99.90
7331;DHT22;3706;49.198;7.064;2022-08-21T04:56:58;10.90;99.90
7331;DHT22;3706;49.198;7.064;2022-08-21T04:59:31;11.20;99.90
7331;DHT22;3706;49.198;7.064;2022-08-21T05:01:59;11.40;99.90
7331;DHT22;3706;49.198;7.064;2022-08-21T05:04:30;11.30;99.90
7331;DHT22;3706;49.198;7.064;2022-08-21T05:06:59;11.20;99.90
7331;DHT22;3706;49.198;7.064;2022-08-21T05:09:28;11.20;99.90
7331;DHT22;3706;49.198;7.064;2022-08-21T05:11:56;11.40;99.90
7331;DHT22;3706;49.198;7.064;2022-08-21T05:14:24;11.40;99.90
7331;DHT22;3706;49.198;7.064;2022-08-21T05:16:52;11.50;99.90
7331;DHT22;3706;49.198;7.064;2022-08-21T05:19:19;11.60;99.90
7331;DHT22;3706;49.198;7.064;2022-08-21T05:21:48;11.70;99.90
7331;DHT22;3706;49.198;7.064;2022-08-21T05:24:15;11.70;99.90
7331;DHT22;3706;49.198;7.064;2022-08-21T05:26:43;11.70;99.90
7331;DHT22;3706;49.198;7.064;2022-08-21T05:29:11;11.70;99.90
7331;DHT22;3706;49.198;7.064;2022-08-21T05:31:38;11.70;99.90
7331;DHT22;3706;49.198;7.064;2022-08-21T05:34:05;11.80;99.90
7331;DHT22;3706;49.198;7.064;2022-08-21T05:36:32;11.80;99.90
7331;DHT22;3706;49.198;7.064;2022-08-21T05:39:00;11.70;99.90
7331;DHT22;3706;49.198;7.064;2022-08-21T05:41:27;11.70;99.90
7331;DHT22;3706;49.198;7.064;2022-08-21T05:43:54;12.00;99.90
7331;DHT22;3706;49.198;7.064;2022-08-21T05:46:21;12.70;99.90
7331;DHT22;3706;49.198;7.064;2022-08-21T05:48:48;13.90;99.90
7331;DHT22;3706;49.198;7.064;2022-08-21T05:51:15;15.20;99.90
7331;DHT22;3706;49.198;7.064;2022-08-21T05:53:43;16.40;99.90
7331;DHT22;3706;49.198;7.064;2022-08-21T05:56:13;17.60;99.90
7331;DHT22;3706;49.198;7.064;2022-08-21T05:58:40;18.70;99.90
7331;DHT22;3706;49.198;7.064;2022-08-21T06:01:07;19.70;99.90
7331;DHT22;3706;49.198;7.064;2022-08-21T06:03:37;20.60;99.90
7331;DHT22;3706;49.198;7.064;2022-08-21T06:06:05;21.30;99.90
7331;DHT22;3706;49.198;7.064;2022-08-21T06:08:32;22.10;97.70
7331;DHT22;3706;49.198;7.064;2022-08-21T06:11:00;22.70;95.30
7331;DHT22;3706;49.198;7.064;2022-08-21T06:13:29;23.30;92.70
7331;DHT22;3706;49.198;7.064;2022-08-21T06:16:04;23.90;91.00
7331;DHT22;3706;49.198;7.064;2022-08-21T06:18:32;24.40;89.10
7331;DHT22;3706;49.198;7.064;2022-08-21T06:20:59;24.90;85.00
7331;DHT22;3706;49.198;7.064;2022-08-21T06:23:26;25.40;83.50
7331;DHT22;3706;49.198;7.064;2022-08-21T06:25:53;25.90;81.40
7331;DHT22;3706;49.198;7.064;2022-08-21T06:28:20;26.50;79.60
7331;DHT22;3706;49.198;7.064;2022-08-21T06:30:48;26.90;76.90
7331;DHT22;3706;49.198;7.064;2022-08-21T06:33:15;27.40;74.70
7331;DHT22;3706;49.198;7.064;2022-08-21T06:35:42;27.80;72.10
7331;DHT22;3706;49.198;7.064;2022-08-21T06:38:09;27.80;70.70
7331;DHT22;3706;49.198;7.064;2022-08-21T06:40:36;28.00;71.20
7331;DHT22;3706;49.198;7.064;2022-08-21T06:43:07;28.30;69.80
7331;DHT22;3706;49.198;7.064;2022-08-21T06:45:35;28.70;68.50
7331;DHT22;3706;49.198;7.064;2022-08-21T06:48:04;29.20;67.10
7331;DHT22;3706;49.198;7.064;2022-08-21T06:50:32;29.50;66.00
7331;DHT22;3706;49.198;7.064;2022-08-21T06:53:02;29.80;64.60
7331;DHT22;3706;49.198;7.064;2022-08-21T06:55:29;30.10;64.00
7331;DHT22;3706;49.198;7.064;2022-08-21T06:57:56;30.60;63.80
7331;DHT22;3706;49.198;7.064;2022-08-21T07:00:23;31.10;61.70
7331;DHT22;3706;49.198;7.064;2022-08-21T07:02:50;31.70;60.60
7331;DHT22;3706;49.198;7.064;2022-08-21T07:05:19;32.20;59.30
7331;DHT22;3706;49.198;7.064;2022-08-21T07:07:46;32.60;57.90
7331;DHT22;3706;49.198;7.064;2022-08-21T07:10:13;32.90;57.20
7331;DHT22;3706;49.198;7.064;2022-08-21T07:12:40;33.30;56.40
7331;DHT22;3706;49.198;7.064;2022-08-21T07:15:08;33.50;55.40
7331;DHT22;3706;49.198;7.064;2022-08-21T07:17:35;33.80;55.00
7331;DHT22;3706;49.198;7.064;2022-08-21T07:20:03;33.90;54.40
7331;DHT22;3706;49.198;7.064;2022-08-21T07:22:33;34.00;53.90
7331;DHT22;3706;49.198;7.064;2022-08-21T07:25:02;33.70;53.70
7331;DHT22;3706;49.198;7.064;2022-08-21T07:27:29;33.20;54.60
7331;DHT22;3706;49.198;7.064;2022-08-21T07:29:57;32.90;55.50
7331;DHT22;3706;49.198;7.064;2022-08-21T07:32:24;32.90;55.60
7331;DHT22;3706;49.198;7.064;2022-08-21T07:34:51;32.80;56.00
7331;DHT22;3706;49.198;7.064;2022-08-21T07:37:18;32.90;55.70
7331;DHT22;3706;49.198;7.064;2022-08-21T07:39:47;33.20;55.60
7331;DHT22;3706;49.198;7.064;2022-08-21T07:42:15;33.50;54.10
7331;DHT22;3706;49.198;7.064;2022-08-21T07:44:42;33.80;53.70
7331;DHT22;3706;49.198;7.064;2022-08-21T07:47:09;34.20;53.40
7331;DHT22;3706;49.198;7.064;2022-08-21T07:49:36;34.90;52.70
7331;DHT22;3706;49.198;7.064;2022-08-21T07:52:03;35.60;51.30
7331;DHT22;3706;49.198;7.064;2022-08-21T07:54:30;36.00;49.90
7331;DHT22;3706;49.198;7.064;2022-08-21T07:56:59;36.10;49.40
7331;DHT22;3706;49.198;7.064;2022-08-21T07:59:26;36.20;48.60
7331;DHT22;3706;49.198;7.064;2022-08-21T08:01:53;36.40;47.30
7331;DHT22;3706;49.198;7.064;2022-08-21T08:04:21;36.40;47.50
7331;DHT22;3706;49.198;7.064;2022-08-21T08:06:49;36.70;47.10
7331;DHT22;3706;49.198;7.064;2022-08-21T08:09:16;37.00;46.20
7331;DHT22;3706;49.198;7.064;2022-08-21T08:11:43;37.20;45.80
7331;DHT22;3706;49.198;7.064;2022-08-21T08:14:12;37.30;45.70
7331;DHT22;3706;49.198;7.064;2022-08-21T08:16:39;37.10;45.60
7331;DHT22;3706;49.198;7.064;2022-08-21T08:19:06;37.20;46.00
7331;DHT22;3706;49.198;7.064;2022-08-21T08:21:33;37.60;45.40
7331;DHT22;3706;49.198;7.064;2022-08-21T08:24:02;37.80;45.30
7331;DHT22;3706;49.198;7.064;2022-08-21T08:26:29;38.00;45.10
7331;DHT22;3706;49.198;7.064;2022-08-21T08:28:56;38.30;44.70
7331;DHT22;3706;49.198;7.064;2022-08-21T08:31:25;38.50;43.30
7331;DHT22;3706;49.198;7.064;2022-08-21T08:33:52;38.50;43.50
7331;DHT22;3706;49.198;7.064;2022-08-21T08:36:19;38.50;43.90
7331;DHT22;3706;49.198;7.064;2022-08-21T08:38:47;38.70;43.80
7331;DHT22;3706;49.198;7.064;2022-08-21T08:41:16;38.90;43.20
7331;DHT22;3706;49.198;7.064;2022-08-21T08:43:48;38.70;43.20
7331;DHT22;3706;49.198;7.064;2022-08-21T08:46:19;38.80;42.60
7331;DHT22;3706;49.198;7.064;2022-08-21T08:48:57;38.70;42.40
7331;DHT22;3706;49.198;7.064;2022-08-21T08:51:28;38.50;42.80
7331;DHT22;3706;49.198;7.064;2022-08-21T08:54:06;38.70;42.70
7331;DHT22;3706;49.198;7.064;2022-08-21T08:56:35;38.60;43.10
7331;DHT22;3706;49.198;7.064;2022-08-21T08:59:08;37.80;43.80
7331;DHT22;3706;49.198;7.064;2022-08-21T09:01:38;37.10;45.20
7331;DHT22;3706;49.198;7.064;2022-08-21T09:04:06;37.10;45.40
7331;DHT22;3706;49.198;7.064;2022-08-21T09:06:46;37.30;45.20
7331;DHT22;3706;49.198;7.064;2022-08-21T09:09:25;37.60;44.90
7331;DHT22;3706;49.198;7.064;2022-08-21T09:12:00;38.10;43.50
7331;DHT22;3706;49.198;7.064;2022-08-21T09:14:39;38.80;42.80
7331;DHT22;3706;49.198;7.064;2022-08-21T09:17:17;38.50;41.60
7331;DHT22;3706;49.198;7.064;2022-08-21T09:19:58;38.40;41.80
7331;DHT22;3706;49.198;7.064;2022-08-21T09:22:33;38.60;41.50
7331;DHT22;3706;49.198;7.064;2022-08-21T09:25:07;38.90;40.90
7331;DHT22;3706;49.198;7.064;2022-08-21T09:27:35;39.30;40.10
7331;DHT22;3706;49.198;7.064;2022-08-21T09:30:04;39.50;39.30
7331;DHT22;3706;49.198;7.064;2022-08-21T09:32:34;39.30;39.10
7331;DHT22;3706;49.198;7.064;2022-08-21T09:35:07;39.30;39.00
7331;DHT22;3706;49.198;7.064;2022-08-21T09:37:44;39.30;37.30
7331;DHT22;3706;49.198;7.064;2022-08-21T09:40:20;38.60;38.60
7331;DHT22;3706;49.198;7.064;2022-08-21T09:42:54;37.60;40.50
7331;DHT22;3706;49.198;7.064;2022-08-21T09:45:22;37.20;41.40
7331;DHT22;3706;49.198;7.064;2022-08-21T09:47:49;37.60;41.60
7331;DHT22;3706;49.198;7.064;2022-08-21T09:50:20;38.00;40.80
7331;DHT22;3706;49.198;7.064;2022-08-21T09:52:50;38.50;38.90
7331;DHT22;3706;49.198;7.064;2022-08-21T09:55:23;39.00;37.70
7331;DHT22;3706;49.198;7.064;2022-08-21T09:58:09;39.50;37.00
7331;DHT22;3706;49.198;7.064;2022-08-21T10:00:37;40.10;36.70
7331;DHT22;3706;49.198;7.064;2022-08-21T10:03:13;40.20;36.90
7331;DHT22;3706;49.198;7.064;2022-08-21T10:05:51;39.70;36.80
7331;DHT22;3706;49.198;7.064;2022-08-21T10:08:19;39.00;36.80
7331;DHT22;3706;49.198;7.064;2022-08-21T10:10:50;38.70;37.00
7331;DHT22;3706;49.198;7.064;2022-08-21T10:13:26;38.40;38.60
7331;DHT22;3706;49.198;7.064;2022-08-21T10:16:05;38.30;38.00
7331;DHT22;3706;49.198;7.064;2022-08-21T10:18:37;38.00;38.80
7331;DHT22;3706;49.198;7.064;2022-08-21T10:21:10;38.00;38.70
7331;DHT22;3706;49.198;7.064;2022-08-21T10:23:51;38.10;38.70
7331;DHT22;3706;49.198;7.064;2022-08-21T10:26:31;38.30;38.10
7331;DHT22;3706;49.198;7.064;2022-08-21T10:29:05;38.50;38.00
7331;DHT22;3706;49.198;7.064;2022-08-21T10:31:42;38.80;37.20
7331;DHT22;3706;49.198;7.064;2022-08-21T10:34:24;38.50;37.00
7331;DHT22;3706;49.198;7.064;2022-08-21T10:37:11;38.00;37.60
7331;DHT22;3706;49.198;7.064;2022-08-21T10:39:48;37.70;38.30
7331;DHT22;3706;49.198;7.064;2022-08-21T10:42:28;38.10;38.10
7331;DHT22;3706;49.198;7.064;2022-08-21T10:45:08;38.20;37.00
7331;DHT22;3706;49.198;7.064;2022-08-21T10:47:42;38.20;36.00
7331;DHT22;3706;49.198;7.064;2022-08-21T10:50:19;38.20;35.90
7331;DHT22;3706;49.198;7.064;2022-08-21T10:53:05;38.40;36.30
7331;DHT22;3706;49.198;7.064;2022-08-21T10:55:39;38.30;35.70
7331;DHT22;3706;49.198;7.064;2022-08-21T10:58:09;38.50;36.10
7331;DHT22;3706;49.198;7.064;2022-08-21T11:00:41;38.30;36.40
7331;DHT22;3706;49.198;7.064;2022-08-21T11:03:13;37.80;36.80
7331;DHT22;3706;49.198;7.064;2022-08-21T11:05:47;37.90;35.70
7331;DHT22;3706;49.198;7.064;2022-08-21T11:08:21;38.10;35.90
7331;DHT22;3706;49.198;7.064;2022-08-21T11:10:53;37.80;36.10
7331;DHT22;3706;49.198;7.064;2022-08-21T11:13:27;37.50;36.00
7331;DHT22;3706;49.198;7.064;2022-08-21T11:16:01;37.70;36.30
7331;DHT22;3706;49.198;7.064;2022-08-21T11:18:33;38.20;35.00
7331;DHT22;3706;49.198;7.064;2022-08-21T11:21:26;38.00;34.70
7331;DHT22;3706;49.198;7.064;2022-08-21T11:24:02;38.50;33.70
7331;DHT22;3706;49.198;7.064;2022-08-21T11:26:34;39.40;33.00
7331;DHT22;3706;49.198;7.064;2022-08-21T11:29:08;39.90;32.70
7331;DHT22;3706;49.198;7.064;2022-08-21T11:31:47;40.00;33.00
7331;DHT22;3706;49.198;7.064;2022-08-21T11:34:26;40.20;32.70
7331;DHT22;3706;49.198;7.064;2022-08-21T11:37:01;39.30;33.40
7331;DHT22;3706;49.198;7.064;2022-08-21T11:39:43;38.50;34.40
7331;DHT22;3706;49.198;7.064;2022-08-21T11:42:19;38.20;34.80
7331;DHT22;3706;49.198;7.064;2022-08-21T11:44:56;37.90;34.20
7331;DHT22;3706;49.198;7.064;2022-08-21T11:47:33;37.20;35.60
7331;DHT22;3706;49.198;7.064;2022-08-21T11:50:14;36.50;37.40
7331;DHT22;3706;49.198;7.064;2022-08-21T11:52:47;36.00;38.30
7331;DHT22;3706;49.198;7.064;2022-08-21T11:55:19;36.10;38.40
7331;DHT22;3706;49.198;7.064;2022-08-21T11:57:52;35.70;39.10
7331;DHT22;3706;49.198;7.064;2022-08-21T12:00:24;35.70;39.80
7331;DHT22;3706;49.198;7.064;2022-08-21T12:02:55;35.70;39.30
7331;DHT22;3706;49.198;7.064;2022-08-21T12:05:29;35.40;39.00
7331;DHT22;3706;49.198;7.064;2022-08-21T12:08:04;35.10;39.70
7331;DHT22;3706;49.198;7.064;2022-08-21T12:10:36;35.30;38.30
7331;DHT22;3706;49.198;7.064;2022-08-21T12:13:08;35.30;38.50
7331;DHT22;3706;49.198;7.064;2022-08-21T12:15:37;35.20;39.30
7331;DHT22;3706;49.198;7.064;2022-08-21T12:18:23;34.80;39.70
7331;DHT22;3706;49.198;7.064;2022-08-21T12:21:02;34.60;39.60
7331;DHT22;3706;49.198;7.064;2022-08-21T12:23:31;34.80;39.80
7331;DHT22;3706;49.198;7.064;2022-08-21T12:26:09;34.90;39.00
7331;DHT22;3706;49.198;7.064;2022-08-21T12:28:37;34.50;40.40
7331;DHT22;3706;49.198;7.064;2022-08-21T12:31:21;34.50;39.70
7331;DHT22;3706;49.198;7.064;2022-08-21T12:33:54;34.70;39.00
7331;DHT22;3706;49.198;7.064;2022-08-21T12:36:23;35.10;38.90
7331;DHT22;3706;49.198;7.064;2022-08-21T12:38:54;35.70;38.40
7331;DHT22;3706;49.198;7.064;2022-08-21T12:41:27;36.20;37.90
7331;DHT22;3706;49.198;7.064;2022-08-21T12:43:58;36.70;38.20
7331;DHT22;3706;49.198;7.064;2022-08-21T12:46:31;36.70;38.10
7331;DHT22;3706;49.198;7.064;2022-08-21T12:49:05;36.70;37.40
7331;DHT22;3706;49.198;7.064;2022-08-21T12:51:38;36.50;37.80
7331;DHT22;3706;49.198;7.064;2022-08-21T12:54:09;36.20;37.90
7331;DHT22;3706;49.198;7.064;2022-08-21T12:56:37;36.00;38.20
7331;DHT22;3706;49.198;7.064;2022-08-21T12:59:07;35.90;38.40
7331;DHT22;3706;49.198;7.064;2022-08-21T13:01:47;35.80;37.60
7331;DHT22;3706;49.198;7.064;2022-08-21T13:04:17;35.70;38.10
7331;DHT22;3706;49.198;7.064;2022-08-21T13:06:48;35.90;38.20
7331;DHT22;3706;49.198;7.064;2022-08-21T13:09:19;36.00;37.90
7331;DHT22;3706;49.198;7.064;2022-08-21T13:11:48;36.10;37.50
7331;DHT22;3706;49.198;7.064;2022-08-21T13:14:23;36.00;37.30
7331;DHT22;3706;49.198;7.064;2022-08-21T13:16:53;35.80;37.20
7331;DHT22;3706;49.198;7.064;2022-08-21T13:19:21;35.90;37.30
7331;DHT22;3706;49.198;7.064;2022-08-21T13:21:50;35.50;37.80
7331;DHT22;3706;49.198;7.064;2022-08-21T13:24:20;35.10;38.20
7331;DHT22;3706;49.198;7.064;2022-08-21T13:26:50;34.60;38.30
7331;DHT22;3706;49.198;7.064;2022-08-21T13:29:20;34.30;38.70
7331;DHT22;3706;49.198;7.064;2022-08-21T13:31:51;34.10;38.90
7331;DHT22;3706;49.198;7.064;2022-08-21T13:34:20;34.00;40.20
7331;DHT22;3706;49.198;7.064;2022-08-21T13:36:47;33.90;40.50
7331;DHT22;3706;49.198;7.064;2022-08-21T13:39:19;33.70;40.60
7331;DHT22;3706;49.198;7.064;2022-08-21T13:41:51;33.50;40.70
7331;DHT22;3706;49.198;7.064;2022-08-21T13:44:22;33.10;40.60
7331;DHT22;3706;49.198;7.064;2022-08-21T13:46:52;32.80;40.70
7331;DHT22;3706;49.198;7.064;2022-08-21T13:49:26;32.40;41.70
7331;DHT22;3706;49.198;7.064;2022-08-21T13:51:53;32.10;42.20
7331;DHT22;3706;49.198;7.064;2022-08-21T13:54:24;31.80;42.40
7331;DHT22;3706;49.198;7.064;2022-08-21T13:56:55;31.60;43.40
7331;DHT22;3706;49.198;7.064;2022-08-21T13:59:28;31.50;43.00
7331;DHT22;3706;49.198;7.064;2022-08-21T14:01:58;31.50;43.50
7331;DHT22;3706;49.198;7.064;2022-08-21T14:04:32;31.60;43.60
7331;DHT22;3706;49.198;7.064;2022-08-21T14:07:00;31.80;43.20
7331;DHT22;3706;49.198;7.064;2022-08-21T14:09:31;31.90;43.60
7331;DHT22;3706;49.198;7.064;2022-08-21T14:12:02;31.80;44.10
7331;DHT22;3706;49.198;7.064;2022-08-21T14:14:39;31.70;43.70
7331;DHT22;3706;49.198;7.064;2022-08-21T14:17:26;31.20;44.50
7331;DHT22;3706;49.198;7.064;2022-08-21T14:19:54;30.80;45.10
7331;DHT22;3706;49.198;7.064;2022-08-21T14:22:30;30.50;45.20
7331;DHT22;3706;49.198;7.064;2022-08-21T14:25:03;30.30;45.80
7331;DHT22;3706;49.198;7.064;2022-08-21T14:27:33;30.20;46.20
7331;DHT22;3706;49.198;7.064;2022-08-21T14:30:04;30.00;45.90
7331;DHT22;3706;49.198;7.064;2022-08-21T14:32:39;30.00;46.60
7331;DHT22;3706;49.198;7.064;2022-08-21T14:35:08;30.10;46.20
7331;DHT22;3706;49.198;7.064;2022-08-21T14:37:36;30.20;46.70
7331;DHT22;3706;49.198;7.064;2022-08-21T14:40:04;30.30;47.20
7331;DHT22;3706;49.198;7.064;2022-08-21T14:42:33;30.50;45.90
7331;DHT22;3706;49.198;7.064;2022-08-21T14:45:03;30.30;46.10
7331;DHT22;3706;49.198;7.064;2022-08-21T14:47:32;30.20;46.80
7331;DHT22;3706;49.198;7.064;2022-08-21T14:49:59;30.00;46.90
7331;DHT22;3706;49.198;7.064;2022-08-21T14:52:26;29.80;46.40
7331;DHT22;3706;49.198;7.064;2022-08-21T14:54:54;29.50;47.00
7331;DHT22;3706;49.198;7.064;2022-08-21T14:57:21;29.50;47.80
7331;DHT22;3706;49.198;7.064;2022-08-21T14:59:50;29.50;46.50
7331;DHT22;3706;49.198;7.064;2022-08-21T15:02:17;29.60;46.20
7331;DHT22;3706;49.198;7.064;2022-08-21T15:04:44;29.70;46.20
7331;DHT22;3706;49.198;7.064;2022-08-21T15:07:11;29.70;45.80
7331;DHT22;3706;49.198;7.064;2022-08-21T15:09:38;29.80;46.00
7331;DHT22;3706;49.198;7.064;2022-08-21T15:12:06;29.70;47.00
7331;DHT22;3706;49.198;7.064;2022-08-21T15:14:36;29.60;46.90
7331;DHT22;3706;49.198;7.064;2022-08-21T15:17:07;29.50;48.00
7331;DHT22;3706;49.198;7.064;2022-08-21T15:19:36;29.50;48.60
7331;DHT22;3706;49.198;7.064;2022-08-21T15:22:04;29.40;48.40
7331;DHT22;3706;49.198;7.064;2022-08-21T15:24:31;29.40;49.20
7331;DHT22;3706;49.198;7.064;2022-08-21T15:27:00;29.40;49.10
7331;DHT22;3706;49.198;7.064;2022-08-21T15:29:28;29.40;48.40
7331;DHT22;3706;49.198;7.064;2022-08-21T15:31:57;29.50;48.20
7331;DHT22;3706;49.198;7.064;2022-08-21T15:34:28;29.60;47.70
7331;DHT22;3706;49.198;7.064;2022-08-21T15:36:56;29.60;48.70
7331;DHT22;3706;49.198;7.064;2022-08-21T15:39:24;29.70;48.20
7331;DHT22;3706;49.198;7.064;2022-08-21T15:41:51;29.70;48.10
7331;DHT22;3706;49.198;7.064;2022-08-21T15:44:18;29.70;47.80
7331;DHT22;3706;49.198;7.064;2022-08-21T15:46:46;29.50;47.60
7331;DHT22;3706;49.198;7.064;2022-08-21T15:49:13;29.40;47.40
7331;DHT22;3706;49.198;7.064;2022-08-21T15:51:42;29.20;48.40
7331;DHT22;3706;49.198;7.064;2022-08-21T15:54:09;29.00;50.20
7331;DHT22;3706;49.198;7.064;2022-08-21T15:56:40;28.80;49.80
7331;DHT22;3706;49.198;7.064;2022-08-21T15:59:14;28.60;50.20
7331;DHT22;3706;49.198;7.064;2022-08-21T16:01:42;28.40;50.80
7331;DHT22;3706;49.198;7.064;2022-08-21T16:04:10;28.20;51.50
7331;DHT22;3706;49.198;7.064;2022-08-21T16:06:42;28.10;51.50
7331;DHT22;3706;49.198;7.064;2022-08-21T16:09:10;28.00;52.00
7331;DHT22;3706;49.198;7.064;2022-08-21T16:11:38;28.00;52.60
7331;DHT22;3706;49.198;7.064;2022-08-21T16:14:05;27.90;52.90
7331;DHT22;3706;49.198;7.064;2022-08-21T16:16:33;27.80;52.70
7331;DHT22;3706;49.198;7.064;2022-08-21T16:19:02;27.80;53.00